sensor_id;sensor_type;location;lat;lon;timestamp;P1;durP1;ratioP1;P2;durP2;ratioP2
70320;SDS011;61127;55.826;37.046;2024-03-02T00:01:32;45.63;;;21.97;;
70320;SDS011;61127;55.826;37.046;2024-03-02T00:03:58;41.38;;;21.17;;
70320;SDS011;61127;55.826;37.046;2024-03-02T00:06:24;44.58;;;21.55;;
70320;SDS011;61127;55.826;37.046;2024-03-02T00:08:50;49.57;;;22.90;;
70320;SDS011;61127;55.826;37.046;2024-03-02T00:11:16;40.33;;;21.17;;
70320;SDS011;61127;55.826;37.046;2024-03-02T00:13:42;45.17;;;21.92;;
70320;SDS011;61127;55.826;37.046;2024-03-02T00:16:08;51.57;;;22.33;;
70320;SDS011;61127;55.826;37.046;2024-03-02T00:18:36;40.25;;;21.02;;
70320;SDS011;61127;55.826;37.046;2024-03-02T00:21:03;46.22;;;21.52;;
70320;SDS011;61127;55.826;37.046;2024-03-02T00:23:32;45.70;;;21.95;;
70320;SDS011;61127;55.826;37.046;2024-03-02T00:25:59;42.03;;;20.63;;
70320;SDS011;61127;55.826;37.046;2024-03-02T00:28:28;43.30;;;21.30;;
70320;SDS011;61127;55.826;37.046;2024-03-02T00:31:13;46.83;;;23.13;;
70320;SDS011;61127;55.826;37.046;2024-03-02T00:33:43;42.03;;;21.98;;
70320;SDS011;61127;55.826;37.046;2024-03-02T00:36:09;48.75;;;22.02;;
70320;SDS011;61127;55.826;37.046;2024-03-02T00:38:56;42.17;;;21.20;;
70320;SDS011;61127;55.826;37.046;2024-03-02T00:41:26;41.80;;;20.73;;
70320;SDS011;61127;55.826;37.046;2024-03-02T00:46:22;46.25;;;21.70;;
70320;SDS011;61127;55.826;37.046;2024-03-02T00:51:14;44.77;;;21.53;;
70320;SDS011;61127;55.826;37.046;2024-03-02T00:53:40;43.78;;;21.40;;
70320;SDS011;61127;55.826;37.046;2024-03-02T00:56:09;46.23;;;21.00;;
70320;SDS011;61127;55.826;37.046;2024-03-02T00:58:34;49.28;;;23.08;;
70320;SDS011;61127;55.826;37.046;2024-03-02T01:01:00;46.97;;;21.77;;
70320;SDS011;61127;55.826;37.046;2024-03-02T01:03:26;47.03;;;22.53;;
70320;SDS011;61127;55.826;37.046;2024-03-02T01:05:52;43.00;;;22.13;;
70320;SDS011;61127;55.826;37.046;2024-03-02T01:08:18;45.97;;;21.30;;
70320;SDS011;61127;55.826;37.046;2024-03-02T01:10:44;42.53;;;21.55;;
70320;SDS011;61127;55.826;37.046;2024-03-02T01:13:09;48.22;;;22.30;;
70320;SDS011;61127;55.826;37.046;2024-03-02T01:15:36;42.92;;;21.77;;
70320;SDS011;61127;55.826;37.046;2024-03-02T01:18:02;41.13;;;20.53;;
70320;SDS011;61127;55.826;37.046;2024-03-02T01:20:46;42.70;;;21.23;;
70320;SDS011;61127;55.826;37.046;2024-03-02T01:23:12;48.13;;;22.02;;
70320;SDS011;61127;55.826;37.046;2024-03-02T01:25:38;40.00;;;21.17;;
70320;SDS011;61127;55.826;37.046;2024-03-02T01:28:04;46.47;;;22.65;;
70320;SDS011;61127;55.826;37.046;2024-03-02T01:30:30;43.40;;;21.85;;
70320;SDS011;61127;55.826;37.046;2024-03-02T01:32:56;44.30;;;20.85;;
70320;SDS011;61127;55.826;37.046;2024-03-02T01:35:24;41.35;;;20.90;;
70320;SDS011;61127;55.826;37.046;2024-03-02T01:37:50;49.80;;;22.17;;
70320;SDS011;61127;55.826;37.046;2024-03-02T01:40:16;45.30;;;22.33;;
70320;SDS011;61127;55.826;37.046;2024-03-02T01:42:43;44.00;;;20.92;;
70320;SDS011;61127;55.826;37.046;2024-03-02T01:45:09;44.07;;;21.33;;
70320;SDS011;61127;55.826;37.046;2024-03-02T01:47:35;44.50;;;21.58;;
70320;SDS011;61127;55.826;37.046;2024-03-02T01:50:01;44.40;;;20.48;;
70320;SDS011;61127;55.826;37.046;2024-03-02T01:52:29;47.65;;;21.45;;
70320;SDS011;61127;55.826;37.046;2024-03-02T01:54:55;49.70;;;21.90;;
70320;SDS011;61127;55.826;37.046;2024-03-02T01:57:21;42.40;;;20.83;;
70320;SDS011;61127;55.826;37.046;2024-03-02T01:59:47;47.58;;;21.23;;
70320;SDS011;61127;55.826;37.046;2024-03-02T02:02:14;40.43;;;20.73;;
70320;SDS011;61127;55.826;37.046;2024-03-02T02:04:40;46.55;;;21.63;;
70320;SDS011;61127;55.826;37.046;2024-03-02T02:07:06;50.78;;;22.85;;
70320;SDS011;61127;55.826;37.046;2024-03-02T02:09:32;40.65;;;20.73;;
70320;SDS011;61127;55.826;37.046;2024-03-02T02:12:16;39.10;;;20.67;;
70320;SDS011;61127;55.826;37.046;2024-03-02T02:14:47;42.03;;;20.77;;
70320;SDS011;61127;55.826;37.046;2024-03-02T02:17:13;51.63;;;22.52;;
70320;SDS011;61127;55.826;37.046;2024-03-02T02:19:40;41.70;;;22.53;;
70320;SDS011;61127;55.826;37.046;2024-03-02T02:22:05;48.83;;;23.02;;
70320;SDS011;61127;55.826;37.046;2024-03-02T02:24:31;43.53;;;22.08;;
70320;SDS011;61127;55.826;37.046;2024-03-02T02:26:57;43.37;;;21.60;;
70320;SDS011;61127;55.826;37.046;2024-03-02T02:29:23;41.85;;;20.88;;
70320;SDS011;61127;55.826;37.046;2024-03-02T02:31:49;42.83;;;21.47;;
70320;SDS011;61127;55.826;37.046;2024-03-02T02:34:15;46.85;;;23.60;;
70320;SDS011;61127;55.826;37.046;2024-03-02T02:36:41;45.85;;;22.13;;
70320;SDS011;61127;55.826;37.046;2024-03-02T02:39:08;44.57;;;22.83;;
70320;SDS011;61127;55.826;37.046;2024-03-02T02:41:36;46.70;;;22.75;;
70320;SDS011;61127;55.826;37.046;2024-03-02T02:44:02;48.90;;;23.40;;
70320;SDS011;61127;55.826;37.046;2024-03-02T02:46:27;48.58;;;22.77;;
70320;SDS011;61127;55.826;37.046;2024-03-02T02:48:53;46.33;;;23.27;;
70320;SDS011;61127;55.826;37.046;2024-03-02T02:51:20;50.23;;;23.33;;
70320;SDS011;61127;55.826;37.046;2024-03-02T02:53:46;50.78;;;23.17;;
70320;SDS011;61127;55.826;37.046;2024-03-02T02:56:11;53.20;;;24.20;;
70320;SDS011;61127;55.826;37.046;2024-03-02T02:58:39;45.83;;;22.70;;
70320;SDS011;61127;55.826;37.046;2024-03-02T03:01:05;46.65;;;23.40;;
70320;SDS011;61127;55.826;37.046;2024-03-02T03:03:31;43.20;;;22.58;;
70320;SDS011;61127;55.826;37.046;2024-03-02T03:05:56;50.27;;;22.20;;
70320;SDS011;61127;55.826;37.046;2024-03-02T03:08:22;49.08;;;22.65;;
70320;SDS011;61127;55.826;37.046;2024-03-02T03:10:49;46.40;;;23.00;;
70320;SDS011;61127;55.826;37.046;2024-03-02T03:13:15;52.38;;;24.33;;
70320;SDS011;61127;55.826;37.046;2024-03-02T03:15:41;46.42;;;22.48;;
70320;SDS011;61127;55.826;37.046;2024-03-02T03:18:07;48.17;;;23.77;;
70320;SDS011;61127;55.826;37.046;2024-03-02T03:20:54;50.75;;;23.77;;
70320;SDS011;61127;55.826;37.046;2024-03-02T03:23:20;47.67;;;23.23;;
70320;SDS011;61127;55.826;37.046;2024-03-02T03:25:46;43.95;;;22.10;;
70320;SDS011;61127;55.826;37.046;2024-03-02T03:28:12;46.83;;;22.30;;
70320;SDS011;61127;55.826;37.046;2024-03-02T03:30:38;51.55;;;22.98;;
70320;SDS011;61127;55.826;37.046;2024-03-02T03:33:04;45.20;;;23.23;;
70320;SDS011;61127;55.826;37.046;2024-03-02T03:35:33;45.43;;;23.30;;
70320;SDS011;61127;55.826;37.046;2024-03-02T03:38:18;45.28;;;22.48;;
70320;SDS011;61127;55.826;37.046;2024-03-02T03:40:44;47.70;;;22.55;;
70320;SDS011;61127;55.826;37.046;2024-03-02T03:43:10;45.38;;;20.95;;
70320;SDS011;61127;55.826;37.046;2024-03-02T03:45:36;47.30;;;23.13;;
70320;SDS011;61127;55.826;37.046;2024-03-02T03:48:02;41.58;;;21.77;;
70320;SDS011;61127;55.826;37.046;2024-03-02T03:50:28;49.58;;;23.88;;
70320;SDS011;61127;55.826;37.046;2024-03-02T03:52:54;49.73;;;23.73;;
70320;SDS011;61127;55.826;37.046;2024-03-02T03:55:20;58.35;;;22.70;;
70320;SDS011;61127;55.826;37.046;2024-03-02T03:57:46;46.27;;;23.13;;
70320;SDS011;61127;55.826;37.046;2024-03-02T04:00:12;43.50;;;22.20;;
70320;SDS011;61127;55.826;37.046;2024-03-02T04:02:38;45.83;;;22.45;;
70320;SDS011;61127;55.826;37.046;2024-03-02T04:05:04;49.03;;;21.90;;
70320;SDS011;61127;55.826;37.046;2024-03-02T04:07:35;47.17;;;23.80;;
70320;SDS011;61127;55.826;37.046;2024-03-02T04:10:23;46.22;;;23.42;;
70320;SDS011;61127;55.826;37.046;2024-03-02T04:12:50;44.50;;;22.40;;
70320;SDS011;61127;55.826;37.046;2024-03-02T04:15:15;50.30;;;22.83;;
70320;SDS011;61127;55.826;37.046;2024-03-02T04:17:41;46.03;;;22.87;;
70320;SDS011;61127;55.826;37.046;2024-03-02T04:20:07;45.95;;;22.20;;
70320;SDS011;61127;55.826;37.046;2024-03-02T04:22:33;44.10;;;21.67;;
70320;SDS011;61127;55.826;37.046;2024-03-02T04:25:00;48.53;;;22.20;;
70320;SDS011;61127;55.826;37.046;2024-03-02T04:27:26;47.38;;;21.67;;
70320;SDS011;61127;55.826;37.046;2024-03-02T04:29:52;50.17;;;21.80;;
70320;SDS011;61127;55.826;37.046;2024-03-02T04:32:18;48.60;;;22.57;;
70320;SDS011;61127;55.826;37.046;2024-03-02T04:34:45;47.47;;;23.65;;
70320;SDS011;61127;55.826;37.046;2024-03-02T04:37:10;48.45;;;22.55;;
70320;SDS011;61127;55.826;37.046;2024-03-02T04:39:37;47.20;;;22.10;;
70320;SDS011;61127;55.826;37.046;2024-03-02T04:42:03;49.53;;;21.40;;
70320;SDS011;61127;55.826;37.046;2024-03-02T04:44:29;45.22;;;22.15;;
70320;SDS011;61127;55.826;37.046;2024-03-02T04:46:55;46.80;;;21.57;;
70320;SDS011;61127;55.826;37.046;2024-03-02T04:49:21;47.72;;;21.98;;
70320;SDS011;61127;55.826;37.046;2024-03-02T04:51:47;47.90;;;23.02;;
70320;SDS011;61127;55.826;37.046;2024-03-02T04:54:12;49.67;;;23.30;;
70320;SDS011;61127;55.826;37.046;2024-03-02T04:56:39;48.55;;;22.40;;
70320;SDS011;61127;55.826;37.046;2024-03-02T04:59:15;42.33;;;21.20;;
70320;SDS011;61127;55.826;37.046;2024-03-02T05:01:42;49.13;;;22.77;;
70320;SDS011;61127;55.826;37.046;2024-03-02T05:04:08;48.27;;;21.70;;
70320;SDS011;61127;55.826;37.046;2024-03-02T05:06:40;47.55;;;22.67;;
70320;SDS011;61127;55.826;37.046;2024-03-02T05:09:06;46.05;;;22.08;;
70320;SDS011;61127;55.826;37.046;2024-03-02T05:11:32;48.35;;;22.13;;
70320;SDS011;61127;55.826;37.046;2024-03-02T05:14:22;47.95;;;21.05;;
70320;SDS011;61127;55.826;37.046;2024-03-02T05:16:47;44.60;;;22.90;;
70320;SDS011;61127;55.826;37.046;2024-03-02T05:19:13;47.97;;;22.35;;
70320;SDS011;61127;55.826;37.046;2024-03-02T05:21:39;50.97;;;23.08;;
70320;SDS011;61127;55.826;37.046;2024-03-02T05:24:05;49.30;;;23.27;;
70320;SDS011;61127;55.826;37.046;2024-03-02T05:26:31;50.23;;;22.33;;
70320;SDS011;61127;55.826;37.046;2024-03-02T05:28:57;55.88;;;24.00;;
70320;SDS011;61127;55.826;37.046;2024-03-02T05:31:22;46.53;;;23.15;;
70320;SDS011;61127;55.826;37.046;2024-03-02T05:33:48;49.00;;;23.63;;
70320;SDS011;61127;55.826;37.046;2024-03-02T05:36:32;50.28;;;22.30;;
70320;SDS011;61127;55.826;37.046;2024-03-02T05:38:58;46.80;;;22.00;;
70320;SDS011;61127;55.826;37.046;2024-03-02T05:41:24;51.25;;;21.63;;
70320;SDS011;61127;55.826;37.046;2024-03-02T05:43:50;48.35;;;22.35;;
70320;SDS011;61127;55.826;37.046;2024-03-02T05:46:15;52.60;;;23.17;;
70320;SDS011;61127;55.826;37.046;2024-03-02T05:48:41;46.42;;;23.08;;
70320;SDS011;61127;55.826;37.046;2024-03-02T05:51:07;46.10;;;23.17;;
70320;SDS011;61127;55.826;37.046;2024-03-02T05:53:33;46.97;;;22.60;;
70320;SDS011;61127;55.826;37.046;2024-03-02T05:55:59;48.95;;;22.35;;
70320;SDS011;61127;55.826;37.046;2024-03-02T05:58:25;52.93;;;23.07;;
70320;SDS011;61127;55.826;37.046;2024-03-02T06:00:53;49.60;;;23.75;;
70320;SDS011;61127;55.826;37.046;2024-03-02T06:03:39;51.92;;;23.17;;
70320;SDS011;61127;55.826;37.046;2024-03-02T06:06:04;48.17;;;23.38;;
70320;SDS011;61127;55.826;37.046;2024-03-02T06:08:31;45.10;;;22.60;;
70320;SDS011;61127;55.826;37.046;2024-03-02T06:10:57;47.72;;;22.85;;
70320;SDS011;61127;55.826;37.046;2024-03-02T06:13:22;47.42;;;23.17;;
70320;SDS011;61127;55.826;37.046;2024-03-02T06:15:48;52.95;;;24.38;;
70320;SDS011;61127;55.826;37.046;2024-03-02T06:18:14;53.25;;;24.42;;
70320;SDS011;61127;55.826;37.046;2024-03-02T06:20:40;47.53;;;22.97;;
70320;SDS011;61127;55.826;37.046;2024-03-02T06:23:06;50.20;;;23.35;;
70320;SDS011;61127;55.826;37.046;2024-03-02T06:25:32;49.60;;;23.20;;
70320;SDS011;61127;55.826;37.046;2024-03-02T06:27:57;52.23;;;23.13;;
70320;SDS011;61127;55.826;37.046;2024-03-02T06:30:23;54.22;;;23.30;;
70320;SDS011;61127;55.826;37.046;2024-03-02T06:32:50;54.25;;;23.63;;
70320;SDS011;61127;55.826;37.046;2024-03-02T06:35:16;52.20;;;23.73;;
70320;SDS011;61127;55.826;37.046;2024-03-02T06:37:42;47.40;;;23.98;;
70320;SDS011;61127;55.826;37.046;2024-03-02T06:40:39;51.35;;;23.85;;
70320;SDS011;61127;55.826;37.046;2024-03-02T06:43:06;47.88;;;23.33;;
70320;SDS011;61127;55.826;37.046;2024-03-02T06:45:32;55.70;;;25.67;;
70320;SDS011;61127;55.826;37.046;2024-03-02T06:48:00;55.97;;;23.63;;
70320;SDS011;61127;55.826;37.046;2024-03-02T06:50:25;57.72;;;25.00;;
70320;SDS011;61127;55.826;37.046;2024-03-02T06:52:52;52.10;;;24.83;;
70320;SDS011;61127;55.826;37.046;2024-03-02T06:55:18;55.95;;;24.63;;
70320;SDS011;61127;55.826;37.046;2024-03-02T06:57:44;54.50;;;25.20;;
70320;SDS011;61127;55.826;37.046;2024-03-02T07:00:10;53.13;;;24.58;;
70320;SDS011;61127;55.826;37.046;2024-03-02T07:02:36;52.88;;;24.92;;
70320;SDS011;61127;55.826;37.046;2024-03-02T07:05:02;53.40;;;24.33;;
70320;SDS011;61127;55.826;37.046;2024-03-02T07:07:29;52.13;;;24.70;;
70320;SDS011;61127;55.826;37.046;2024-03-02T07:09:55;49.80;;;24.48;;
70320;SDS011;61127;55.826;37.046;2024-03-02T07:12:21;53.42;;;24.05;;
70320;SDS011;61127;55.826;37.046;2024-03-02T07:14:46;52.27;;;25.10;;
70320;SDS011;61127;55.826;37.046;2024-03-02T07:17:21;55.67;;;25.83;;
70320;SDS011;61127;55.826;37.046;2024-03-02T07:19:47;53.15;;;25.00;;
70320;SDS011;61127;55.826;37.046;2024-03-02T07:22:13;58.23;;;25.73;;
70320;SDS011;61127;55.826;37.046;2024-03-02T07:24:39;53.42;;;24.70;;
70320;SDS011;61127;55.826;37.046;2024-03-02T07:27:06;57.35;;;26.88;;
70320;SDS011;61127;55.826;37.046;2024-03-02T07:29:32;61.93;;;26.77;;
70320;SDS011;61127;55.826;37.046;2024-03-02T07:31:58;52.28;;;24.60;;
70320;SDS011;61127;55.826;37.046;2024-03-02T07:34:24;62.05;;;26.85;;
70320;SDS011;61127;55.826;37.046;2024-03-02T07:36:50;58.63;;;27.50;;
70320;SDS011;61127;55.826;37.046;2024-03-02T07:39:16;62.03;;;28.33;;
70320;SDS011;61127;55.826;37.046;2024-03-02T07:41:42;57.83;;;26.80;;
70320;SDS011;61127;55.826;37.046;2024-03-02T07:44:09;60.58;;;28.65;;
70320;SDS011;61127;55.826;37.046;2024-03-02T07:46:35;59.63;;;26.67;;
70320;SDS011;61127;55.826;37.046;2024-03-02T07:49:03;63.15;;;29.02;;
70320;SDS011;61127;55.826;37.046;2024-03-02T07:51:29;60.93;;;27.80;;
70320;SDS011;61127;55.826;37.046;2024-03-02T07:53:55;62.63;;;28.33;;
70320;SDS011;61127;55.826;37.046;2024-03-02T07:56:20;59.08;;;29.23;;
70320;SDS011;61127;55.826;37.046;2024-03-02T07:58:49;63.53;;;28.23;;
70320;SDS011;61127;55.826;37.046;2024-03-02T08:01:15;58.95;;;27.10;;
70320;SDS011;61127;55.826;37.046;2024-03-02T08:03:41;58.83;;;28.30;;
70320;SDS011;61127;55.826;37.046;2024-03-02T08:06:07;51.20;;;24.13;;
70320;SDS011;61127;55.826;37.046;2024-03-02T08:08:32;58.92;;;28.92;;
70320;SDS011;61127;55.826;37.046;2024-03-02T08:10:58;60.77;;;28.13;;
70320;SDS011;61127;55.826;37.046;2024-03-02T08:13:24;68.72;;;29.50;;
70320;SDS011;61127;55.826;37.046;2024-03-02T08:15:50;64.82;;;30.73;;
70320;SDS011;61127;55.826;37.046;2024-03-02T08:18:16;67.37;;;29.07;;
70320;SDS011;61127;55.826;37.046;2024-03-02T08:20:41;65.68;;;29.95;;
70320;SDS011;61127;55.826;37.046;2024-03-02T08:23:07;65.00;;;30.23;;
70320;SDS011;61127;55.826;37.046;2024-03-02T08:25:33;58.03;;;25.40;;
70320;SDS011;61127;55.826;37.046;2024-03-02T08:27:59;70.55;;;32.35;;
70320;SDS011;61127;55.826;37.046;2024-03-02T08:30:44;66.50;;;31.00;;
70320;SDS011;61127;55.826;37.046;2024-03-02T08:33:10;54.57;;;26.63;;
70320;SDS011;61127;55.826;37.046;2024-03-02T08:35:35;64.60;;;32.22;;
70320;SDS011;61127;55.826;37.046;2024-03-02T08:38:04;72.72;;;32.25;;
70320;SDS011;61127;55.826;37.046;2024-03-02T08:40:30;64.43;;;31.17;;
70320;SDS011;61127;55.826;37.046;2024-03-02T08:42:56;62.80;;;31.50;;
70320;SDS011;61127;55.826;37.046;2024-03-02T08:45:22;67.85;;;34.00;;
70320;SDS011;61127;55.826;37.046;2024-03-02T08:47:48;66.63;;;32.87;;
70320;SDS011;61127;55.826;37.046;2024-03-02T08:50:14;68.05;;;30.10;;
70320;SDS011;61127;55.826;37.046;2024-03-02T08:52:40;72.07;;;33.65;;
70320;SDS011;61127;55.826;37.046;2024-03-02T08:55:06;72.60;;;33.97;;
70320;SDS011;61127;55.826;37.046;2024-03-02T08:57:33;62.42;;;28.52;;
70320;SDS011;61127;55.826;37.046;2024-03-02T08:59:59;65.07;;;31.80;;
70320;SDS011;61127;55.826;37.046;2024-03-02T09:02:25;72.32;;;37.28;;
70320;SDS011;61127;55.826;37.046;2024-03-02T09:04:51;74.53;;;37.67;;
70320;SDS011;61127;55.826;37.046;2024-03-02T09:07:17;53.47;;;25.85;;
70320;SDS011;61127;55.826;37.046;2024-03-02T09:09:43;73.20;;;35.33;;
70320;SDS011;61127;55.826;37.046;2024-03-02T09:12:09;68.13;;;33.20;;
70320;SDS011;61127;55.826;37.046;2024-03-02T09:14:36;78.80;;;37.25;;
70320;SDS011;61127;55.826;37.046;2024-03-02T09:17:02;74.30;;;36.47;;
70320;SDS011;61127;55.826;37.046;2024-03-02T09:19:29;63.75;;;33.75;;
70320;SDS011;61127;55.826;37.046;2024-03-02T09:21:55;68.85;;;34.63;;
70320;SDS011;61127;55.826;37.046;2024-03-02T09:24:24;82.43;;;38.30;;
70320;SDS011;61127;55.826;37.046;2024-03-02T09:26:50;59.60;;;28.90;;
70320;SDS011;61127;55.826;37.046;2024-03-02T09:29:34;76.38;;;37.20;;
70320;SDS011;61127;55.826;37.046;2024-03-02T09:32:00;74.78;;;36.45;;
70320;SDS011;61127;55.826;37.046;2024-03-02T09:34:26;69.88;;;34.78;;
70320;SDS011;61127;55.826;37.046;2024-03-02T09:36:52;66.68;;;34.88;;
70320;SDS011;61127;55.826;37.046;2024-03-02T09:39:18;74.33;;;36.87;;
70320;SDS011;61127;55.826;37.046;2024-03-02T09:41:43;69.45;;;35.45;;
70320;SDS011;61127;55.826;37.046;2024-03-02T09:44:09;65.90;;;31.85;;
70320;SDS011;61127;55.826;37.046;2024-03-02T09:46:35;61.00;;;31.05;;
70320;SDS011;61127;55.826;37.046;2024-03-02T09:49:02;70.03;;;36.75;;
70320;SDS011;61127;55.826;37.046;2024-03-02T09:51:47;75.38;;;36.28;;
70320;SDS011;61127;55.826;37.046;2024-03-02T09:54:13;72.20;;;36.00;;
70320;SDS011;61127;55.826;37.046;2024-03-02T09:56:39;70.03;;;34.97;;
70320;SDS011;61127;55.826;37.046;2024-03-02T09:59:05;65.78;;;33.55;;
70320;SDS011;61127;55.826;37.046;2024-03-02T10:01:31;68.93;;;34.08;;
70320;SDS011;61127;55.826;37.046;2024-03-02T10:04:00;73.18;;;34.40;;
70320;SDS011;61127;55.826;37.046;2024-03-02T10:06:26;71.78;;;33.25;;
70320;SDS011;61127;55.826;37.046;2024-03-02T10:08:53;62.17;;;31.38;;
70320;SDS011;61127;55.826;37.046;2024-03-02T10:14:10;62.03;;;29.75;;
70320;SDS011;61127;55.826;37.046;2024-03-02T10:16:36;65.37;;;27.37;;
70320;SDS011;61127;55.826;37.046;2024-03-02T10:19:19;60.28;;;30.98;;
70320;SDS011;61127;55.826;37.046;2024-03-02T10:21:49;66.07;;;30.52;;
70320;SDS011;61127;55.826;37.046;2024-03-02T10:24:15;63.60;;;31.15;;
70320;SDS011;61127;55.826;37.046;2024-03-02T10:26:41;55.40;;;26.65;;
70320;SDS011;61127;55.826;37.046;2024-03-02T10:29:08;53.47;;;26.43;;
70320;SDS011;61127;55.826;37.046;2024-03-02T10:31:39;53.83;;;25.15;;
70320;SDS011;61127;55.826;37.046;2024-03-02T10:34:05;57.25;;;25.33;;
70320;SDS011;61127;55.826;37.046;2024-03-02T10:36:35;49.15;;;23.73;;
70320;SDS011;61127;55.826;37.046;2024-03-02T10:39:04;55.80;;;25.23;;
70320;SDS011;61127;55.826;37.046;2024-03-02T10:41:34;57.43;;;27.17;;
70320;SDS011;61127;55.826;37.046;2024-03-02T10:44:04;55.47;;;28.73;;
70320;SDS011;61127;55.826;37.046;2024-03-02T10:46:31;57.65;;;28.13;;
70320;SDS011;61127;55.826;37.046;2024-03-02T10:48:58;44.75;;;20.40;;
70320;SDS011;61127;55.826;37.046;2024-03-02T10:51:25;56.92;;;28.88;;
70320;SDS011;61127;55.826;37.046;2024-03-02T10:53:52;59.07;;;28.50;;
70320;SDS011;61127;55.826;37.046;2024-03-02T10:56:21;66.85;;;30.63;;
70320;SDS011;61127;55.826;37.046;2024-03-02T10:58:50;59.78;;;28.38;;
70320;SDS011;61127;55.826;37.046;2024-03-02T11:01:16;53.63;;;23.27;;
70320;SDS011;61127;55.826;37.046;2024-03-02T11:03:42;55.47;;;27.38;;
70320;SDS011;61127;55.826;37.046;2024-03-02T11:06:10;64.30;;;30.20;;
70320;SDS011;61127;55.826;37.046;2024-03-02T11:08:37;64.25;;;31.95;;
70320;SDS011;61127;55.826;37.046;2024-03-02T11:11:06;55.88;;;26.08;;
70320;SDS011;61127;55.826;37.046;2024-03-02T11:13:33;46.45;;;21.85;;
70320;SDS011;61127;55.826;37.046;2024-03-02T11:16:02;60.95;;;28.00;;
70320;SDS011;61127;55.826;37.046;2024-03-02T11:18:29;70.03;;;33.57;;
70320;SDS011;61127;55.826;37.046;2024-03-02T11:20:55;62.65;;;28.70;;
70320;SDS011;61127;55.826;37.046;2024-03-02T11:23:31;65.55;;;33.15;;
70320;SDS011;61127;55.826;37.046;2024-03-02T11:26:20;70.28;;;31.35;;
70320;SDS011;61127;55.826;37.046;2024-03-02T11:29:05;67.03;;;30.42;;
70320;SDS011;61127;55.826;37.046;2024-03-02T11:32:16;53.27;;;27.30;;
70320;SDS011;61127;55.826;37.046;2024-03-02T11:34:17;58.72;;;29.10;;
70320;SDS011;61127;55.826;37.046;2024-03-02T11:36:43;63.08;;;30.50;;
70320;SDS011;61127;55.826;37.046;2024-03-02T11:39:09;55.83;;;29.30;;
70320;SDS011;61127;55.826;37.046;2024-03-02T11:41:34;61.95;;;30.17;;
70320;SDS011;61127;55.826;37.046;2024-03-02T11:44:01;57.97;;;27.00;;
70320;SDS011;61127;55.826;37.046;2024-03-02T11:46:29;55.03;;;29.77;;
70320;SDS011;61127;55.826;37.046;2024-03-02T11:48:55;50.38;;;26.83;;
70320;SDS011;61127;55.826;37.046;2024-03-02T11:51:21;49.38;;;25.83;;
70320;SDS011;61127;55.826;37.046;2024-03-02T11:53:47;49.75;;;25.58;;
70320;SDS011;61127;55.826;37.046;2024-03-02T11:56:13;52.43;;;26.37;;
70320;SDS011;61127;55.826;37.046;2024-03-02T11:58:40;50.53;;;26.80;;
70320;SDS011;61127;55.826;37.046;2024-03-02T12:01:06;54.22;;;27.63;;
70320;SDS011;61127;55.826;37.046;2024-03-02T12:03:32;61.00;;;29.73;;
70320;SDS011;61127;55.826;37.046;2024-03-02T12:06:00;54.72;;;29.10;;
70320;SDS011;61127;55.826;37.046;2024-03-02T12:08:26;56.00;;;27.20;;
70320;SDS011;61127;55.826;37.046;2024-03-02T12:10:56;60.43;;;29.07;;
70320;SDS011;61127;55.826;37.046;2024-03-02T12:13:23;59.70;;;31.80;;
70320;SDS011;61127;55.826;37.046;2024-03-02T12:15:52;62.80;;;30.60;;
70320;SDS011;61127;55.826;37.046;2024-03-02T12:18:18;57.75;;;30.42;;
70320;SDS011;61127;55.826;37.046;2024-03-02T12:20:44;51.33;;;28.52;;
70320;SDS011;61127;55.826;37.046;2024-03-02T12:23:10;54.80;;;31.20;;
70320;SDS011;61127;55.826;37.046;2024-03-02T12:25:36;60.97;;;33.03;;
70320;SDS011;61127;55.826;37.046;2024-03-02T12:28:02;58.07;;;31.70;;
70320;SDS011;61127;55.826;37.046;2024-03-02T12:30:32;62.40;;;31.73;;
70320;SDS011;61127;55.826;37.046;2024-03-02T12:33:00;69.80;;;35.30;;
70320;SDS011;61127;55.826;37.046;2024-03-02T12:35:26;70.43;;;33.33;;
70320;SDS011;61127;55.826;37.046;2024-03-02T12:37:55;68.85;;;32.88;;
70320;SDS011;61127;55.826;37.046;2024-03-02T12:40:21;62.35;;;31.13;;
70320;SDS011;61127;55.826;37.046;2024-03-02T12:42:48;73.57;;;32.60;;
70320;SDS011;61127;55.826;37.046;2024-03-02T12:45:14;61.57;;;29.40;;
70320;SDS011;61127;55.826;37.046;2024-03-02T12:47:41;66.25;;;32.35;;
70320;SDS011;61127;55.826;37.046;2024-03-02T12:50:07;66.25;;;31.25;;
70320;SDS011;61127;55.826;37.046;2024-03-02T12:52:33;65.55;;;32.13;;
70320;SDS011;61127;55.826;37.046;2024-03-02T12:55:00;65.88;;;30.83;;
70320;SDS011;61127;55.826;37.046;2024-03-02T12:57:26;61.20;;;27.90;;
70320;SDS011;61127;55.826;37.046;2024-03-02T12:59:56;58.03;;;26.65;;
70320;SDS011;61127;55.826;37.046;2024-03-02T13:02:22;55.90;;;27.85;;
70320;SDS011;61127;55.826;37.046;2024-03-02T13:04:54;49.70;;;25.02;;
70320;SDS011;61127;55.826;37.046;2024-03-02T13:07:21;53.33;;;25.33;;
70320;SDS011;61127;55.826;37.046;2024-03-02T13:09:50;57.08;;;26.80;;
70320;SDS011;61127;55.826;37.046;2024-03-02T13:12:16;52.55;;;26.85;;
70320;SDS011;61127;55.826;37.046;2024-03-02T13:14:42;54.22;;;26.52;;
70320;SDS011;61127;55.826;37.046;2024-03-02T13:17:09;60.90;;;28.90;;
70320;SDS011;61127;55.826;37.046;2024-03-02T13:19:35;55.03;;;26.33;;
70320;SDS011;61127;55.826;37.046;2024-03-02T13:22:01;56.35;;;26.35;;
70320;SDS011;61127;55.826;37.046;2024-03-02T13:24:30;48.03;;;23.42;;
70320;SDS011;61127;55.826;37.046;2024-03-02T13:26:56;49.30;;;23.37;;
70320;SDS011;61127;55.826;37.046;2024-03-02T13:29:23;53.63;;;25.05;;
70320;SDS011;61127;55.826;37.046;2024-03-02T13:31:50;50.95;;;24.42;;
70320;SDS011;61127;55.826;37.046;2024-03-02T13:34:15;56.72;;;25.45;;
70320;SDS011;61127;55.826;37.046;2024-03-02T13:36:59;51.42;;;23.65;;
70320;SDS011;61127;55.826;37.046;2024-03-02T13:39:27;52.57;;;24.07;;
70320;SDS011;61127;55.826;37.046;2024-03-02T13:41:53;51.83;;;23.20;;
70320;SDS011;61127;55.826;37.046;2024-03-02T13:44:27;53.25;;;23.98;;
70320;SDS011;61127;55.826;37.046;2024-03-02T13:46:53;55.10;;;24.95;;
70320;SDS011;61127;55.826;37.046;2024-03-02T13:49:19;49.47;;;24.60;;
70320;SDS011;61127;55.826;37.046;2024-03-02T13:51:45;51.65;;;24.45;;
70320;SDS011;61127;55.826;37.046;2024-03-02T13:54:11;51.20;;;23.25;;
70320;SDS011;61127;55.826;37.046;2024-03-02T13:56:37;54.40;;;26.03;;
70320;SDS011;61127;55.826;37.046;2024-03-02T13:59:04;49.28;;;22.77;;
70320;SDS011;61127;55.826;37.046;2024-03-02T14:01:31;52.58;;;24.45;;
70320;SDS011;61127;55.826;37.046;2024-03-02T14:03:58;53.58;;;24.20;;
70320;SDS011;61127;55.826;37.046;2024-03-02T14:06:24;51.92;;;22.67;;
70320;SDS011;61127;55.826;37.046;2024-03-02T14:08:52;56.20;;;27.03;;
70320;SDS011;61127;55.826;37.046;2024-03-02T14:11:18;48.90;;;20.85;;
70320;SDS011;61127;55.826;37.046;2024-03-02T14:13:45;51.33;;;22.55;;
70320;SDS011;61127;55.826;37.046;2024-03-02T14:16:15;47.25;;;20.92;;
70320;SDS011;61127;55.826;37.046;2024-03-02T14:18:41;48.50;;;21.00;;